sensor_id;sensor_type;location;lat;lon;timestamp;temperature;humidity
4985;DHT22;2509;49.902;8.600;2022-08-01T00:00:57;24.50;99.20
4985;DHT22;2509;49.902;8.600;2022-08-01T00:03:59;24.50;98.70
4985;DHT22;2509;49.902;8.600;2022-08-01T00:07:01;24.50;98.60
4985;DHT22;2509;49.902;8.600;2022-08-01T00:10:06;24.50;98.50
4985;DHT22;2509;49.902;8.600;2022-08-01T00:13:08;24.40;98.60
4985;DHT22;2509;49.902;8.600;2022-08-01T00:16:10;24.40;99.00
4985;DHT22;2509;49.902;8.600;2022-08-01T00:19:11;24.40;99.00
4985;DHT22;2509;49.902;8.600;2022-08-01T00:22:13;24.40;99.20
4985;DHT22;2509;49.902;8.600;2022-08-01T00:25:16;24.20;99.70
4985;DHT22;2509;49.902;8.600;2022-08-01T00:28:18;24.10;99.90
4985;DHT22;2509;49.902;8.600;2022-08-01T00:31:20;24.00;99.90
4985;DHT22;2509;49.902;8.600;2022-08-01T00:34:21;24.00;99.90
4985;DHT22;2509;49.902;8.600;2022-08-01T00:37:23;24.00;99.90
4985;DHT22;2509;49.902;8.600;2022-08-01T00:40:26;24.00;99.90
4985;DHT22;2509;49.902;8.600;2022-08-01T00:43:28;24.00;99.90
4985;DHT22;2509;49.902;8.600;2022-08-01T00:46:30;24.00;99.90
4985;DHT22;2509;49.902;8.600;2022-08-01T00:49:32;24.10;99.90
4985;DHT22;2509;49.902;8.600;2022-08-01T00:52:34;24.00;99.90
4985;DHT22;2509;49.902;8.600;2022-08-01T00:55:38;23.90;99.90
4985;DHT22;2509;49.902;8.600;2022-08-01T00:58:40;23.90;99.90
4985;DHT22;2509;49.902;8.600;2022-08-01T01:01:41;23.90;99.90
4985;DHT22;2509;49.902;8.600;2022-08-01T01:04:43;23.90;99.90
4985;DHT22;2509;49.902;8.600;2022-08-01T01:07:50;23.90;99.90
4985;DHT22;2509;49.902;8.600;2022-08-01T01:11:03;23.80;99.90
4985;DHT22;2509;49.902;8.600;2022-08-01T01:14:11;23.80;99.90
4985;DHT22;2509;49.902;8.600;2022-08-01T01:17:17;23.80;99.90
4985;DHT22;2509;49.902;8.600;2022-08-01T01:20:24;23.80;99.90
4985;DHT22;2509;49.902;8.600;2022-08-01T01:23:40;23.80;99.90
4985;DHT22;2509;49.902;8.600;2022-08-01T01:26:50;23.70;99.90
4985;DHT22;2509;49.902;8.600;2022-08-01T01:29:56;23.60;99.90
4985;DHT22;2509;49.902;8.600;2022-08-01T01:33:02;23.60;99.90
4985;DHT22;2509;49.902;8.600;2022-08-01T01:36:07;23.50;99.90
4985;DHT22;2509;49.902;8.600;2022-08-01T01:39:10;23.40;99.90
4985;DHT22;2509;49.902;8.600;2022-08-01T01:42:13;23.40;99.90
4985;DHT22;2509;49.902;8.600;2022-08-01T01:45:18;23.40;99.90
4985;DHT22;2509;49.902;8.600;2022-08-01T01:48:20;23.30;99.90
4985;DHT22;2509;49.902;8.600;2022-08-01T01:51:25;23.30;99.90
4985;DHT22;2509;49.902;8.600;2022-08-01T01:54:30;23.20;99.90
4985;DHT22;2509;49.902;8.600;2022-08-01T01:57:32;23.10;99.90
4985;DHT22;2509;49.902;8.600;2022-08-01T02:00:38;23.10;99.90
4985;DHT22;2509;49.902;8.600;2022-08-01T02:03:42;23.00;99.90
4985;DHT22;2509;49.902;8.600;2022-08-01T02:06:45;23.00;99.90
4985;DHT22;2509;49.902;8.600;2022-08-01T02:09:48;22.90;99.90
4985;DHT22;2509;49.902;8.600;2022-08-01T02:12:50;22.90;99.90
4985;DHT22;2509;49.902;8.600;2022-08-01T02:15:54;22.90;99.90
4985;DHT22;2509;49.902;8.600;2022-08-01T02:18:56;22.90;99.90
4985;DHT22;2509;49.902;8.600;2022-08-01T02:22:07;22.80;99.90
4985;DHT22;2509;49.902;8.600;2022-08-01T02:25:14;22.80;99.90
4985;DHT22;2509;49.902;8.600;2022-08-01T02:28:22;22.70;99.90
4985;DHT22;2509;49.902;8.600;2022-08-01T02:31:32;22.70;99.90
4985;DHT22;2509;49.902;8.600;2022-08-01T02:34:36;22.60;99.90
4985;DHT22;2509;49.902;8.600;2022-08-01T02:37:38;22.60;99.90
4985;DHT22;2509;49.902;8.600;2022-08-01T02:40:45;22.60;99.90
4985;DHT22;2509;49.902;8.600;2022-08-01T02:43:49;22.60;99.90
4985;DHT22;2509;49.902;8.600;2022-08-01T02:46:57;22.60;99.90
4985;DHT22;2509;49.902;8.600;2022-08-01T02:50:03;22.60;99.90
4985;DHT22;2509;49.902;8.600;2022-08-01T02:53:06;22.60;99.90
4985;DHT22;2509;49.902;8.600;2022-08-01T02:56:12;22.60;99.90
4985;DHT22;2509;49.902;8.600;2022-08-01T02:59:17;22.70;99.90
4985;DHT22;2509;49.902;8.600;2022-08-01T03:02:21;22.70;99.90
4985;DHT22;2509;49.902;8.600;2022-08-01T03:05:25;22.50;99.90
4985;DHT22;2509;49.902;8.600;2022-08-01T03:08:29;22.50;99.90
4985;DHT22;2509;49.902;8.600;2022-08-01T03:11:33;22.30;99.90
4985;DHT22;2509;49.902;8.600;2022-08-01T03:14:38;22.30;99.90
4985;DHT22;2509;49.902;8.600;2022-08-01T03:17:45;22.30;99.90
4985;DHT22;2509;49.902;8.600;2022-08-01T03:20:49;22.40;99.90
4985;DHT22;2509;49.902;8.600;2022-08-01T03:23:53;22.40;99.90
4985;DHT22;2509;49.902;8.600;2022-08-01T03:26:57;22.40;99.90
4985;DHT22;2509;49.902;8.600;2022-08-01T03:30:03;22.40;99.90
4985;DHT22;2509;49.902;8.600;2022-08-01T03:33:07;22.50;99.90
4985;DHT22;2509;49.902;8.600;2022-08-01T03:36:10;22.50;99.90
4985;DHT22;2509;49.902;8.600;2022-08-01T03:39:14;22.30;99.90
4985;DHT22;2509;49.902;8.600;2022-08-01T03:42:20;22.30;99.90
4985;DHT22;2509;49.902;8.600;2022-08-01T03:45:26;22.30;99.90
4985;DHT22;2509;49.902;8.600;2022-08-01T03:48:32;22.30;99.90
4985;DHT22;2509;49.902;8.600;2022-08-01T03:51:37;22.20;99.90
4985;DHT22;2509;49.902;8.600;2022-08-01T03:54:42;22.20;99.90
4985;DHT22;2509;49.902;8.600;2022-08-01T03:57:46;22.20;99.90
4985;DHT22;2509;49.902;8.600;2022-08-01T04:00:48;22.10;99.90
4985;DHT22;2509;49.902;8.600;2022-08-01T04:03:52;22.10;99.90
4985;DHT22;2509;49.902;8.600;2022-08-01T04:06:54;22.20;99.90
4985;DHT22;2509;49.902;8.600;2022-08-01T04:09:56;22.10;99.90
4985;DHT22;2509;49.902;8.600;2022-08-01T04:12:58;22.10;99.90
4985;DHT22;2509;49.902;8.600;2022-08-01T04:16:00;22.10;99.90
4985;DHT22;2509;49.902;8.600;2022-08-01T04:19:03;22.00;99.90
4985;DHT22;2509;49.902;8.600;2022-08-01T04:22:09;22.00;99.90
4985;DHT22;2509;49.902;8.600;2022-08-01T04:25:15;21.90;99.90
4985;DHT22;2509;49.902;8.600;2022-08-01T04:28:19;21.80;99.90
4985;DHT22;2509;49.902;8.600;2022-08-01T04:31:22;21.80;99.90
4985;DHT22;2509;49.902;8.600;2022-08-01T04:34:30;21.70;99.90
4985;DHT22;2509;49.902;8.600;2022-08-01T04:37:33;21.70;99.90
4985;DHT22;2509;49.902;8.600;2022-08-01T04:40:37;21.60;99.90
4985;DHT22;2509;49.902;8.600;2022-08-01T04:43:40;21.50;99.90
4985;DHT22;2509;49.902;8.600;2022-08-01T04:46:43;21.50;99.90
4985;DHT22;2509;49.902;8.600;2022-08-01T04:49:46;21.50;99.90
4985;DHT22;2509;49.902;8.600;2022-08-01T04:52:48;21.50;99.90
4985;DHT22;2509;49.902;8.600;2022-08-01T04:55:51;21.50;99.90
4985;DHT22;2509;49.902;8.600;2022-08-01T04:58:53;21.50;99.90
4985;DHT22;2509;49.902;8.600;2022-08-01T05:02:10;21.60;99.90
4985;DHT22;2509;49.902;8.600;2022-08-01T05:05:14;21.70;99.90
4985;DHT22;2509;49.902;8.600;2022-08-01T05:08:16;21.70;99.90
4985;DHT22;2509;49.902;8.600;2022-08-01T05:11:17;21.70;99.90
4985;DHT22;2509;49.902;8.600;2022-08-01T05:14:19;21.80;99.90
4985;DHT22;2509;49.902;8.600;2022-08-01T05:17:21;21.90;99.90
4985;DHT22;2509;49.902;8.600;2022-08-01T05:20:24;21.80;99.90
4985;DHT22;2509;49.902;8.600;2022-08-01T05:23:26;21.70;99.90
4985;DHT22;2509;49.902;8.600;2022-08-01T05:26:28;21.80;99.90
4985;DHT22;2509;49.902;8.600;2022-08-01T05:29:30;21.90;99.90
4985;DHT22;2509;49.902;8.600;2022-08-01T05:32:32;21.90;99.90
4985;DHT22;2509;49.902;8.600;2022-08-01T05:35:35;21.90;99.90
4985;DHT22;2509;49.902;8.600;2022-08-01T05:38:37;21.80;99.90
4985;DHT22;2509;49.902;8.600;2022-08-01T05:41:39;21.80;99.90
4985;DHT22;2509;49.902;8.600;2022-08-01T05:44:41;21.90;99.90
4985;DHT22;2509;49.902;8.600;2022-08-01T05:47:43;21.90;99.90
4985;DHT22;2509;49.902;8.600;2022-08-01T05:50:46;21.90;99.90
4985;DHT22;2509;49.902;8.600;2022-08-01T05:53:48;21.90;99.90
4985;DHT22;2509;49.902;8.600;2022-08-01T05:56:50;22.10;99.90
4985;DHT22;2509;49.902;8.600;2022-08-01T05:59:52;22.20;99.90
4985;DHT22;2509;49.902;8.600;2022-08-01T06:02:53;22.30;99.90
4985;DHT22;2509;49.902;8.600;2022-08-01T06:05:57;22.40;99.90
4985;DHT22;2509;49.902;8.600;2022-08-01T06:08:58;22.50;99.90
4985;DHT22;2509;49.902;8.600;2022-08-01T06:12:00;22.40;99.90
4985;DHT22;2509;49.902;8.600;2022-08-01T06:15:04;22.40;99.90
4985;DHT22;2509;49.902;8.600;2022-08-01T06:18:06;22.50;99.90
4985;DHT22;2509;49.902;8.600;2022-08-01T06:21:09;22.60;99.90
4985;DHT22;2509;49.902;8.600;2022-08-01T06:24:11;22.60;99.90
4985;DHT22;2509;49.902;8.600;2022-08-01T06:27:13;22.60;99.90
4985;DHT22;2509;49.902;8.600;2022-08-01T06:30:15;22.60;99.90
4985;DHT22;2509;49.902;8.600;2022-08-01T06:33:17;22.60;99.90
4985;DHT22;2509;49.902;8.600;2022-08-01T06:36:20;22.60;99.90
4985;DHT22;2509;49.902;8.600;2022-08-01T06:39:21;22.80;99.90
4985;DHT22;2509;49.902;8.600;2022-08-01T06:42:23;22.90;99.90
4985;DHT22;2509;49.902;8.600;2022-08-01T06:45:25;23.00;99.90
4985;DHT22;2509;49.902;8.600;2022-08-01T06:48:27;23.20;99.90
4985;DHT22;2509;49.902;8.600;2022-08-01T06:51:30;23.20;99.90
4985;DHT22;2509;49.902;8.600;2022-08-01T06:54:32;23.20;99.90
4985;DHT22;2509;49.902;8.600;2022-08-01T06:57:34;23.30;99.90
4985;DHT22;2509;49.902;8.600;2022-08-01T07:00:36;23.30;99.90
4985;DHT22;2509;49.902;8.600;2022-08-01T07:03:37;23.40;99.90
4985;DHT22;2509;49.902;8.600;2022-08-01T07:06:40;23.50;99.90
4985;DHT22;2509;49.902;8.600;2022-08-01T07:09:42;23.70;99.90
4985;DHT22;2509;49.902;8.600;2022-08-01T07:12:44;23.80;99.90
4985;DHT22;2509;49.902;8.600;2022-08-01T07:15:46;23.90;99.90
4985;DHT22;2509;49.902;8.600;2022-08-01T07:18:47;23.90;99.90
4985;DHT22;2509;49.902;8.600;2022-08-01T07:21:51;23.90;99.90
4985;DHT22;2509;49.902;8.600;2022-08-01T07:24:52;23.90;99.90
4985;DHT22;2509;49.902;8.600;2022-08-01T07:27:54;24.00;99.90
4985;DHT22;2509;49.902;8.600;2022-08-01T07:30:56;24.00;99.90
4985;DHT22;2509;49.902;8.600;2022-08-01T07:33:58;24.10;99.90
4985;DHT22;2509;49.902;8.600;2022-08-01T07:37:01;24.20;99.90
4985;DHT22;2509;49.902;8.600;2022-08-01T07:40:03;24.30;99.90
4985;DHT22;2509;49.902;8.600;2022-08-01T07:43:05;24.60;99.90
4985;DHT22;2509;49.902;8.600;2022-08-01T07:46:07;24.80;99.90
4985;DHT22;2509;49.902;8.600;2022-08-01T07:49:09;24.90;99.90
4985;DHT22;2509;49.902;8.600;2022-08-01T07:52:12;25.10;99.90
4985;DHT22;2509;49.902;8.600;2022-08-01T07:55:14;25.10;99.90
4985;DHT22;2509;49.902;8.600;2022-08-01T07:58:16;25.20;99.90
4985;DHT22;2509;49.902;8.600;2022-08-01T08:01:18;25.20;99.90
4985;DHT22;2509;49.902;8.600;2022-08-01T08:04:20;25.30;99.90
4985;DHT22;2509;49.902;8.600;2022-08-01T08:07:23;25.40;99.90
4985;DHT22;2509;49.902;8.600;2022-08-01T08:10:25;25.20;99.90
4985;DHT22;2509;49.902;8.600;2022-08-01T08:13:27;25.30;99.90
4985;DHT22;2509;49.902;8.600;2022-08-01T08:16:29;25.50;99.90
4985;DHT22;2509;49.902;8.600;2022-08-01T08:19:31;25.80;99.90
4985;DHT22;2509;49.902;8.600;2022-08-01T08:22:36;25.90;99.90
4985;DHT22;2509;49.902;8.600;2022-08-01T08:25:38;26.10;99.40
4985;DHT22;2509;49.902;8.600;2022-08-01T08:28:40;26.00;99.20
4985;DHT22;2509;49.902;8.600;2022-08-01T08:31:42;26.20;99.60
4985;DHT22;2509;49.902;8.600;2022-08-01T08:34:44;26.30;99.00
4985;DHT22;2509;49.902;8.600;2022-08-01T08:37:47;26.30;99.90
4985;DHT22;2509;49.902;8.600;2022-08-01T08:40:49;26.40;99.00
4985;DHT22;2509;49.902;8.600;2022-08-01T08:43:51;26.40;98.90
4985;DHT22;2509;49.902;8.600;2022-08-01T08:46:55;26.50;98.30
4985;DHT22;2509;49.902;8.600;2022-08-01T08:49:59;26.50;98.00
4985;DHT22;2509;49.902;8.600;2022-08-01T08:53:04;26.50;97.70
4985;DHT22;2509;49.902;8.600;2022-08-01T08:56:06;26.20;98.30
4985;DHT22;2509;49.902;8.600;2022-08-01T08:59:11;26.10;98.60
4985;DHT22;2509;49.902;8.600;2022-08-01T09:02:13;25.90;98.80
4985;DHT22;2509;49.902;8.600;2022-08-01T09:05:15;25.90;99.30
4985;DHT22;2509;49.902;8.600;2022-08-01T09:08:20;26.00;98.60
4985;DHT22;2509;49.902;8.600;2022-08-01T09:11:23;26.10;98.40
4985;DHT22;2509;49.902;8.600;2022-08-01T09:14:26;26.20;98.70
4985;DHT22;2509;49.902;8.600;2022-08-01T09:17:39;26.40;97.30
4985;DHT22;2509;49.902;8.600;2022-08-01T09:20:41;26.50;97.30
4985;DHT22;2509;49.902;8.600;2022-08-01T09:23:46;26.60;97.20
4985;DHT22;2509;49.902;8.600;2022-08-01T09:26:48;26.70;97.10
4985;DHT22;2509;49.902;8.600;2022-08-01T09:29:52;26.90;96.40
4985;DHT22;2509;49.902;8.600;2022-08-01T09:32:55;27.10;96.20
4985;DHT22;2509;49.902;8.600;2022-08-01T09:35:57;27.30;96.10
4985;DHT22;2509;49.902;8.600;2022-08-01T09:39:12;27.50;96.40
4985;DHT22;2509;49.902;8.600;2022-08-01T09:42:24;27.70;95.50
4985;DHT22;2509;49.902;8.600;2022-08-01T09:45:32;27.70;93.80
4985;DHT22;2509;49.902;8.600;2022-08-01T09:48:34;27.50;94.00
4985;DHT22;2509;49.902;8.600;2022-08-01T09:51:38;27.40;94.10
4985;DHT22;2509;49.902;8.600;2022-08-01T09:54:43;27.30;94.70
4985;DHT22;2509;49.902;8.600;2022-08-01T09:57:55;27.40;94.00
4985;DHT22;2509;49.902;8.600;2022-08-01T10:00:59;27.70;94.10
4985;DHT22;2509;49.902;8.600;2022-08-01T10:04:09;28.10;93.60
4985;DHT22;2509;49.902;8.600;2022-08-01T10:07:11;28.50;92.90
4985;DHT22;2509;49.902;8.600;2022-08-01T10:10:17;28.60;91.70
4985;DHT22;2509;49.902;8.600;2022-08-01T10:13:18;28.50;92.10
4985;DHT22;2509;49.902;8.600;2022-08-01T10:16:21;28.40;92.20
4985;DHT22;2509;49.902;8.600;2022-08-01T10:19:24;28.50;92.10
4985;DHT22;2509;49.902;8.600;2022-08-01T10:22:27;28.90;91.00
4985;DHT22;2509;49.902;8.600;2022-08-01T10:25:34;29.30;90.70
4985;DHT22;2509;49.902;8.600;2022-08-01T10:28:37;29.40;90.40
4985;DHT22;2509;49.902;8.600;2022-08-01T10:31:39;29.30;89.70
4985;DHT22;2509;49.902;8.600;2022-08-01T10:34:41;29.30;89.80
4985;DHT22;2509;49.902;8.600;2022-08-01T10:37:44;29.30;89.40
4985;DHT22;2509;49.902;8.600;2022-08-01T10:40:48;29.30;89.30
4985;DHT22;2509;49.902;8.600;2022-08-01T10:43:52;29.30;91.30
4985;DHT22;2509;49.902;8.600;2022-08-01T10:46:58;29.60;90.60
4985;DHT22;2509;49.902;8.600;2022-08-01T10:50:07;29.60;89.00
4985;DHT22;2509;49.902;8.600;2022-08-01T10:53:14;29.20;89.40
4985;DHT22;2509;49.902;8.600;2022-08-01T10:56:18;29.20;89.50
4985;DHT22;2509;49.902;8.600;2022-08-01T10:59:21;29.40;89.60
4985;DHT22;2509;49.902;8.600;2022-08-01T11:02:28;29.70;89.50
4985;DHT22;2509;49.902;8.600;2022-08-01T11:05:31;30.00;89.60
4985;DHT22;2509;49.902;8.600;2022-08-01T11:08:36;30.00;87.70
4985;DHT22;2509;49.902;8.600;2022-08-01T11:11:57;29.90;87.10
4985;DHT22;2509;49.902;8.600;2022-08-01T11:15:20;29.90;87.10
4985;DHT22;2509;49.902;8.600;2022-08-01T11:18:30;30.10;87.50
4985;DHT22;2509;49.902;8.600;2022-08-01T11:22:00;30.40;84.70
4985;DHT22;2509;49.902;8.600;2022-08-01T11:25:05;30.60;84.90
4985;DHT22;2509;49.902;8.600;2022-08-01T11:28:19;31.10;82.30
4985;DHT22;2509;49.902;8.600;2022-08-01T11:31:31;31.50;82.20
4985;DHT22;2509;49.902;8.600;2022-08-01T11:34:51;31.60;80.70
4985;DHT22;2509;49.902;8.600;2022-08-01T11:37:54;31.80;80.90
4985;DHT22;2509;49.902;8.600;2022-08-01T11:41:09;32.10;80.10
4985;DHT22;2509;49.902;8.600;2022-08-01T11:44:17;32.70;79.70
4985;DHT22;2509;49.902;8.600;2022-08-01T11:47:43;33.30;78.60
4985;DHT22;2509;49.902;8.600;2022-08-01T11:50:45;33.90;76.80
4985;DHT22;2509;49.902;8.600;2022-08-01T11:53:49;33.70;77.30
4985;DHT22;2509;49.902;8.600;2022-08-01T11:56:55;33.00;78.70
4985;DHT22;2509;49.902;8.600;2022-08-01T11:59:59;33.00;79.00
4985;DHT22;2509;49.902;8.600;2022-08-01T12:03:03;33.50;80.50
4985;DHT22;2509;49.902;8.600;2022-08-01T12:06:05;34.30;76.90
4985;DHT22;2509;49.902;8.600;2022-08-01T12:09:17;34.40;76.40
4985;DHT22;2509;49.902;8.600;2022-08-01T12:12:20;34.80;76.00
4985;DHT22;2509;49.902;8.600;2022-08-01T12:15:24;34.60;76.10
4985;DHT22;2509;49.902;8.600;2022-08-01T12:18:26;34.60;75.50
4985;DHT22;2509;49.902;8.600;2022-08-01T12:21:28;34.10;75.30
4985;DHT22;2509;49.902;8.600;2022-08-01T12:24:29;34.40;74.80
4985;DHT22;2509;49.902;8.600;2022-08-01T12:27:31;34.80;74.50
4985;DHT22;2509;49.902;8.600;2022-08-01T12:30:36;35.30;73.90
4985;DHT22;2509;49.902;8.600;2022-08-01T12:33:39;35.70;73.60
4985;DHT22;2509;49.902;8.600;2022-08-01T12:36:41;35.70;73.20
4985;DHT22;2509;49.902;8.600;2022-08-01T12:39:44;35.40;73.00
4985;DHT22;2509;49.902;8.600;2022-08-01T12:42:48;35.10;72.70
4985;DHT22;2509;49.902;8.600;2022-08-01T12:45:53;34.40;73.80
4985;DHT22;2509;49.902;8.600;2022-08-01T12:48:55;34.00;74.30
4985;DHT22;2509;49.902;8.600;2022-08-01T12:51:57;34.20;74.90
4985;DHT22;2509;49.902;8.600;2022-08-01T12:55:10;33.90;74.90
4985;DHT22;2509;49.902;8.600;2022-08-01T12:58:14;33.30;76.30
4985;DHT22;2509;49.902;8.600;2022-08-01T13:01:25;34.50;75.20
4985;DHT22;2509;49.902;8.600;2022-08-01T13:04:27;34.80;74.50
4985;DHT22;2509;49.902;8.600;2022-08-01T13:07:37;34.90;75.10
4985;DHT22;2509;49.902;8.600;2022-08-01T13:10:39;35.10;74.50
4985;DHT22;2509;49.902;8.600;2022-08-01T13:13:42;34.50;74.60
4985;DHT22;2509;49.902;8.600;2022-08-01T13:16:47;34.20;74.80
4985;DHT22;2509;49.902;8.600;2022-08-01T13:19:49;33.70;74.90
4985;DHT22;2509;49.902;8.600;2022-08-01T13:22:52;33.50;75.90
4985;DHT22;2509;49.902;8.600;2022-08-01T13:25:55;33.70;75.30
4985;DHT22;2509;49.902;8.600;2022-08-01T13:29:03;34.30;74.90
4985;DHT22;2509;49.902;8.600;2022-08-01T13:32:14;35.10;72.40
4985;DHT22;2509;49.902;8.600;2022-08-01T13:35:20;35.10;72.50
4985;DHT22;2509;49.902;8.600;2022-08-01T13:38:22;35.30;73.40
4985;DHT22;2509;49.902;8.600;2022-08-01T13:41:44;35.40;72.00
4985;DHT22;2509;49.902;8.600;2022-08-01T13:44:46;34.60;73.30
4985;DHT22;2509;49.902;8.600;2022-08-01T13:47:49;34.40;73.40
4985;DHT22;2509;49.902;8.600;2022-08-01T13:50:51;33.90;74.60
4985;DHT22;2509;49.902;8.600;2022-08-01T13:53:53;33.40;75.10
4985;DHT22;2509;49.902;8.600;2022-08-01T13:56:55;33.10;75.40
4985;DHT22;2509;49.902;8.600;2022-08-01T13:59:57;32.90;75.70
4985;DHT22;2509;49.902;8.600;2022-08-01T14:03:01;33.10;75.50
4985;DHT22;2509;49.902;8.600;2022-08-01T14:06:03;33.20;75.40
4985;DHT22;2509;49.902;8.600;2022-08-01T14:09:05;32.90;76.40
4985;DHT22;2509;49.902;8.600;2022-08-01T14:12:08;32.90;76.00
4985;DHT22;2509;49.902;8.600;2022-08-01T14:15:10;33.00;76.00
4985;DHT22;2509;49.902;8.600;2022-08-01T14:18:13;33.40;76.10
4985;DHT22;2509;49.902;8.600;2022-08-01T14:21:15;33.70;75.20
4985;DHT22;2509;49.902;8.600;2022-08-01T14:24:17;34.00;75.90
4985;DHT22;2509;49.902;8.600;2022-08-01T14:27:18;33.90;74.60
4985;DHT22;2509;49.902;8.600;2022-08-01T14:30:20;33.20;75.90
4985;DHT22;2509;49.902;8.600;2022-08-01T14:33:23;32.90;76.60
4985;DHT22;2509;49.902;8.600;2022-08-01T14:36:25;32.70;77.10
4985;DHT22;2509;49.902;8.600;2022-08-01T14:39:27;32.70;77.30
4985;DHT22;2509;49.902;8.600;2022-08-01T14:42:29;32.50;76.90
4985;DHT22;2509;49.902;8.600;2022-08-01T14:45:31;32.30;77.20
4985;DHT22;2509;49.902;8.600;2022-08-01T14:48:34;32.00;77.20
4985;DHT22;2509;49.902;8.600;2022-08-01T14:51:36;31.70;78.30
4985;DHT22;2509;49.902;8.600;2022-08-01T14:54:38;31.60;79.00
4985;DHT22;2509;49.902;8.600;2022-08-01T14:57:40;31.40;78.70
4985;DHT22;2509;49.902;8.600;2022-08-01T15:00:42;31.30;80.30
4985;DHT22;2509;49.902;8.600;2022-08-01T15:03:46;31.10;80.20
4985;DHT22;2509;49.902;8.600;2022-08-01T15:06:50;30.90;81.20
4985;DHT22;2509;49.902;8.600;2022-08-01T15:09:52;30.70;84.10
4985;DHT22;2509;49.902;8.600;2022-08-01T15:12:54;30.40;84.60
4985;DHT22;2509;49.902;8.600;2022-08-01T15:15:56;29.70;99.60
4985;DHT22;2509;49.902;8.600;2022-08-01T15:18:59;28.80;97.20
4985;DHT22;2509;49.902;8.600;2022-08-01T15:22:01;28.30;99.90
4985;DHT22;2509;49.902;8.600;2022-08-01T15:25:04;27.80;99.90
4985;DHT22;2509;49.902;8.600;2022-08-01T15:28:06;26.60;99.90
4985;DHT22;2509;49.902;8.600;2022-08-01T15:31:09;24.30;99.90
4985;DHT22;2509;49.902;8.600;2022-08-01T15:34:12;22.00;99.90
4985;DHT22;2509;49.902;8.600;2022-08-01T15:37:14;21.10;99.90
4985;DHT22;2509;49.902;8.600;2022-08-01T15:40:16;20.60;99.90
4985;DHT22;2509;49.902;8.600;2022-08-01T15:43:18;20.70;99.90
4985;DHT22;2509;49.902;8.600;2022-08-01T15:46:20;20.50;99.90
4985;DHT22;2509;49.902;8.600;2022-08-01T15:49:23;20.30;99.90
4985;DHT22;2509;49.902;8.600;2022-08-01T15:52:25;20.30;99.90
4985;DHT22;2509;49.902;8.600;2022-08-01T15:55:26;20.40;99.90
4985;DHT22;2509;49.902;8.600;2022-08-01T15:58:28;20.50;99.90
4985;DHT22;2509;49.902;8.600;2022-08-01T16:01:30;20.80;99.90
4985;DHT22;2509;49.902;8.600;2022-08-01T16:04:34;21.00;99.90
4985;DHT22;2509;49.902;8.600;2022-08-01T16:07:35;21.10;99.90
4985;DHT22;2509;49.902;8.600;2022-08-01T16:10:37;21.30;99.90
4985;DHT22;2509;49.902;8.600;2022-08-01T16:13:39;21.40;99.90
4985;DHT22;2509;49.902;8.600;2022-08-01T16:16:41;21.30;99.90
4985;DHT22;2509;49.902;8.600;2022-08-01T16:19:44;21.20;99.90
4985;DHT22;2509;49.902;8.600;2022-08-01T16:22:46;21.20;99.90
4985;DHT22;2509;49.902;8.600;2022-08-01T16:25:48;21.40;99.90
4985;DHT22;2509;49.902;8.600;2022-08-01T16:28:49;21.60;99.90
4985;DHT22;2509;49.902;8.600;2022-08-01T16:31:52;21.60;99.90
4985;DHT22;2509;49.902;8.600;2022-08-01T16:34:55;21.60;99.90
4985;DHT22;2509;49.902;8.600;2022-08-01T16:37:57;21.60;99.90
4985;DHT22;2509;49.902;8.600;2022-08-01T16:40:59;21.60;99.90
4985;DHT22;2509;49.902;8.600;2022-08-01T16:44:00;21.90;99.90
4985;DHT22;2509;49.902;8.600;2022-08-01T16:47:03;22.00;99.90
4985;DHT22;2509;49.902;8.600;2022-08-01T16:50:07;22.00;99.90
4985;DHT22;2509;49.902;8.600;2022-08-01T16:53:09;22.00;99.90
4985;DHT22;2509;49.902;8.600;2022-08-01T16:56:11;22.30;99.90
4985;DHT22;2509;49.902;8.600;2022-08-01T16:59:12;22.50;99.90
4985;DHT22;2509;49.902;8.600;2022-08-01T17:02:14;22.50;99.90
4985;DHT22;2509;49.902;8.600;2022-08-01T17:05:17;22.60;99.90
4985;DHT22;2509;49.902;8.600;2022-08-01T17:08:20;22.60;99.90
4985;DHT22;2509;49.902;8.600;2022-08-01T17:11:22;22.50;99.90
4985;DHT22;2509;49.902;8.600;2022-08-01T17:14:23;22.50;99.90
4985;DHT22;2509;49.902;8.600;2022-08-01T17:17:25;22.40;99.90
4985;DHT22;2509;49.902;8.600;2022-08-01T17:20:29;22.40;99.90
4985;DHT22;2509;49.902;8.600;2022-08-01T17:23:31;22.50;99.90
4985;DHT22;2509;49.902;8.600;2022-08-01T17:26:34;22.50;99.90
4985;DHT22;2509;49.902;8.600;2022-08-01T17:29:36;22.60;99.90
4985;DHT22;2509;49.902;8.600;2022-08-01T17:32:39;22.60;99.90
4985;DHT22;2509;49.902;8.600;2022-08-01T17:35:42;22.70;99.90
4985;DHT22;2509;49.902;8.600;2022-08-01T17:38:44;22.70;99.90
4985;DHT22;2509;49.902;8.600;2022-08-01T17:41:46;22.70;99.90
4985;DHT22;2509;49.902;8.600;2022-08-01T17:44:48;22.80;99.90
4985;DHT22;2509;49.902;8.600;2022-08-01T17:47:50;22.80;99.90
4985;DHT22;2509;49.902;8.600;2022-08-01T17:50:53;22.90;99.90
4985;DHT22;2509;49.902;8.600;2022-08-01T17:53:55;22.90;99.90
4985;DHT22;2509;49.902;8.600;2022-08-01T17:56:57;23.00;99.90
4985;DHT22;2509;49.902;8.600;2022-08-01T17:59:59;23.00;99.90
4985;DHT22;2509;49.902;8.600;2022-08-01T18:03:01;23.00;99.90
4985;DHT22;2509;49.902;8.600;2022-08-01T18:06:04;23.00;99.90
4985;DHT22;2509;49.902;8.600;2022-08-01T18:09:08;23.00;99.90
4985;DHT22;2509;49.902;8.600;2022-08-01T18:12:10;23.00;99.90
4985;DHT22;2509;49.902;8.600;2022-08-01T18:15:11;23.10;99.90
4985;DHT22;2509;49.902;8.600;2022-08-01T18:18:13;23.00;99.90
4985;DHT22;2509;49.902;8.600;2022-08-01T18:21:18;23.00;99.90
4985;DHT22;2509;49.902;8.600;2022-08-01T18:24:20;23.00;99.90
4985;DHT22;2509;49.902;8.600;2022-08-01T18:27:22;23.00;99.90
4985;DHT22;2509;49.902;8.600;2022-08-01T18:30:24;22.90;99.90
4985;DHT22;2509;49.902;8.600;2022-08-01T18:33:27;22.70;99.90
4985;DHT22;2509;49.902;8.600;2022-08-01T18:36:31;22.50;99.90
4985;DHT22;2509;49.902;8.600;2022-08-01T18:39:33;22.30;99.90
4985;DHT22;2509;49.902;8.600;2022-08-01T18:42:55;22.20;99.90
4985;DHT22;2509;49.902;8.600;2022-08-01T18:46:10;22.30;99.90
4985;DHT22;2509;49.902;8.600;2022-08-01T18:49:34;22.30;99.90
4985;DHT22;2509;49.902;8.600;2022-08-01T18:53:11;22.20;99.90
4985;DHT22;2509;49.902;8.600;2022-08-01T18:57:05;22.00;99.90
4985;DHT22;2509;49.902;8.600;2022-08-01T19:00:17;21.70;99.90
4985;DHT22;2509;49.902;8.600;2022-08-01T19:03:26;21.50;99.90
4985;DHT22;2509;49.902;8.600;2022-08-01T19:10:32;21.60;99.90
4985;DHT22;2509;49.902;8.600;2022-08-01T19:21:23;21.30;99.90
4985;DHT22;2509;49.902;8.600;2022-08-01T19:24:42;21.20;99.90
4985;DHT22;2509;49.902;8.600;2022-08-01T19:47:34;21.10;99.90
4985;DHT22;2509;49.902;8.600;2022-08-01T20:02:28;20.90;99.90
4985;DHT22;2509;49.902;8.600;2022-08-01T20:05:30;20.80;99.90
4985;DHT22;2509;49.902;8.600;2022-08-01T20:08:32;20.80;99.90
4985;DHT22;2509;49.902;8.600;2022-08-01T20:11:35;20.70;99.90
4985;DHT22;2509;49.902;8.600;2022-08-01T20:14:37;20.60;99.90
4985;DHT22;2509;49.902;8.600;2022-08-01T20:17:40;20.60;99.90
4985;DHT22;2509;49.902;8.600;2022-08-01T20:20:43;20.70;99.90
4985;DHT22;2509;49.902;8.600;2022-08-01T20:23:46;20.80;99.90
4985;DHT22;2509;49.902;8.600;2022-08-01T20:26:51;20.80;99.90
4985;DHT22;2509;49.902;8.600;2022-08-01T20:29:56;20.80;99.90
4985;DHT22;2509;49.902;8.600;2022-08-01T20:33:00;20.70;99.90
4985;DHT22;2509;49.902;8.600;2022-08-01T20:36:03;20.70;99.90
4985;DHT22;2509;49.902;8.600;2022-08-01T20:39:06;20.60;99.90
4985;DHT22;2509;49.902;8.600;2022-08-01T20:42:08;20.50;99.90
4985;DHT22;2509;49.902;8.600;2022-08-01T20:45:10;20.40;99.90